createdAt,value
2022-08-09T00:02:21.844Z,1.40
2022-08-09T00:06:15.733Z,1.23
2022-08-09T00:09:35.747Z,1.30
2022-08-09T00:13:01.626Z,1.77
2022-08-09T00:16:36.626Z,1.40
2022-08-09T00:20:02.903Z,1.50
2022-08-09T00:23:54.874Z,1.20
2022-08-09T00:27:14.299Z,1.10
2022-08-09T00:30:38.630Z,1.17
2022-08-09T00:34:02.765Z,1.20
2022-08-09T00:37:27.299Z,1.90
2022-08-09T00:40:58.143Z,1.37
2022-08-09T00:44:26.918Z,1.57
2022-08-09T00:47:51.768Z,1.60
2022-08-09T00:51:18.405Z,1.50
2022-08-09T00:54:43.138Z,1.60
2022-08-09T00:58:09.314Z,1.50
2022-08-09T01:01:45.177Z,1.40
2022-08-09T01:05:22.130Z,1.60
2022-08-09T01:08:56.108Z,1.50
2022-08-09T01:12:28.253Z,1.60
2022-08-09T01:15:55.652Z,1.70
2022-08-09T01:19:40.183Z,1.53
2022-08-09T01:24:01.721Z,1.43
2022-08-09T01:27:09.650Z,1.53
2022-08-09T01:30:52.703Z,1.30
2022-08-09T01:34:21.496Z,1.50
2022-08-09T01:38:08.478Z,1.43
2022-08-09T01:41:34.226Z,1.60
2022-08-09T01:45:01.410Z,1.67
2022-08-09T01:48:29.816Z,1.40
2022-08-09T01:51:58.471Z,1.90
2022-08-09T01:55:32.996Z,1.40
2022-08-09T01:59:00.239Z,1.50
2022-08-09T02:02:31.007Z,1.50
2022-08-09T02:06:03.879Z,1.80
2022-08-09T02:09:42.360Z,1.20
2022-08-09T02:13:09.407Z,1.57
2022-08-09T02:16:53.414Z,1.70
2022-08-09T02:20:32.966Z,1.37
2022-08-09T02:24:01.961Z,1.60
2022-08-09T02:27:58.120Z,1.20
2022-08-09T02:31:17.002Z,1.53
2022-08-09T02:34:55.525Z,1.50
2022-08-09T02:38:29.780Z,1.70
2022-08-09T02:41:58.864Z,1.50
2022-08-09T02:45:28.792Z,1.37
2022-08-09T02:48:56.720Z,1.73
2022-08-09T02:52:22.816Z,1.50
2022-08-09T02:55:58.319Z,1.60
2022-08-09T02:59:26.314Z,1.83
2022-08-09T03:03:02.289Z,1.60
2022-08-09T03:06:28.009Z,1.70
2022-08-09T03:09:56.725Z,1.63
2022-08-09T03:13:28.235Z,1.47
2022-08-09T03:17:20.530Z,1.73
2022-08-09T03:20:53.236Z,1.50
2022-08-09T03:24:17.998Z,1.40
2022-08-09T03:28:03.905Z,1.67
2022-08-09T03:31:30.161Z,1.40
2022-08-09T03:34:56.297Z,1.67
2022-08-09T03:38:28.700Z,1.50
2022-08-09T03:42:06.147Z,1.40
2022-08-09T03:46:04.115Z,1.70
2022-08-09T03:49:19.234Z,1.40
2022-08-09T03:52:50.128Z,1.70
2022-08-09T03:56:17.188Z,1.90
2022-08-09T03:59:52.753Z,1.60
2022-08-09T04:03:35.346Z,1.60
2022-08-09T04:07:01.821Z,1.80
2022-08-09T04:10:29.613Z,1.60
2022-08-09T04:14:54.057Z,1.60
2022-08-09T04:17:39.400Z,1.67
2022-08-09T04:21:06.881Z,1.87
2022-08-09T04:24:33.302Z,1.60
2022-08-09T04:28:02.439Z,1.60
2022-08-09T04:31:37.510Z,1.40
2022-08-09T04:35:14.341Z,1.90
2022-08-09T04:38:39.898Z,1.83
2022-08-09T04:42:09.200Z,1.70
2022-08-09T04:45:36.078Z,1.60
2022-08-09T04:49:17.459Z,1.80
2022-08-09T04:52:54.597Z,1.70
2022-08-09T04:56:20.107Z,1.67
2022-08-09T04:59:51.943Z,1.93
2022-08-09T05:03:43.892Z,2.10
2022-08-09T05:07:08.308Z,2.10
2022-08-09T05:10:43.610Z,1.70
2022-08-09T05:14:15.772Z,1.97
2022-08-09T05:18:39.621Z,1.37
2022-08-09T05:21:46.675Z,2.00
2022-08-09T05:25:15.040Z,1.73
2022-08-09T05:28:39.654Z,1.60
2022-08-09T05:32:05.888Z,2.17
2022-08-09T05:35:31.970Z,3.00
2022-08-09T05:39:06.133Z,2.10
2022-08-09T05:42:34.500Z,2.27
2022-08-09T05:46:00.078Z,2.27
2022-08-09T05:50:14.834Z,2.03
2022-08-09T05:53:21.546Z,2.20
2022-08-09T05:57:00.014Z,2.17
2022-08-09T06:00:25.707Z,2.27
2022-08-09T06:03:54.770Z,1.90
2022-08-09T06:07:24.507Z,2.23
2022-08-09T06:10:55.521Z,2.20
2022-08-09T06:14:22.923Z,2.40
2022-08-09T06:17:52.450Z,2.30
2022-08-09T06:21:21.368Z,2.53
2022-08-09T06:24:49.691Z,2.47
2022-08-09T06:28:21.435Z,2.20
2022-08-09T06:32:09.350Z,2.63
2022-08-09T06:35:57.513Z,2.40
2022-08-09T06:39:25.477Z,2.67
2022-08-09T06:43:14.559Z,2.30
2022-08-09T06:46:55.404Z,2.30
2022-08-09T06:50:31.112Z,2.13
2022-08-09T07:06:35.371Z,2.10
2022-08-09T07:10:10.400Z,2.10
2022-08-09T07:13:45.465Z,1.90
2022-08-09T07:17:26.882Z,2.00
2022-08-09T07:21:03.275Z,1.80
2022-08-09T07:24:40.786Z,1.90
2022-08-09T07:28:09.440Z,2.20
2022-08-09T07:31:38.294Z,2.07
2022-08-09T07:35:11.775Z,2.33
2022-08-09T07:38:38.217Z,2.60
2022-08-09T07:42:05.278Z,2.13
2022-08-09T07:45:39.605Z,2.70
2022-08-09T07:49:04.706Z,2.47
2022-08-09T07:52:29.001Z,2.10
2022-08-09T07:56:03.635Z,2.03
2022-08-09T07:59:34.683Z,2.10
2022-08-09T08:03:09.883Z,2.10
2022-08-09T08:06:36.582Z,2.30
2022-08-09T08:10:11.095Z,1.67
2022-08-09T08:13:42.608Z,2.30
2022-08-09T08:17:24.822Z,2.63
2022-08-09T08:21:04.570Z,2.50
2022-08-09T08:24:34.158Z,2.53
2022-08-09T08:28:04.334Z,2.30
2022-08-09T08:32:02.544Z,2.30
2022-08-09T08:35:18.256Z,2.20
2022-08-09T08:38:45.938Z,2.03
2022-08-09T08:42:10.205Z,2.30
2022-08-09T08:45:38.011Z,1.80
2022-08-09T08:49:07.631Z,2.17
2022-08-09T08:52:59.220Z,2.77
2022-08-09T08:56:28.016Z,2.30
2022-08-09T08:59:53.790Z,1.90
2022-08-09T09:03:23.043Z,1.80
2022-08-09T09:06:59.034Z,2.37
2022-08-09T09:10:30.439Z,2.20
2022-08-09T09:13:58.748Z,1.90
2022-08-09T09:17:22.557Z,2.40
2022-08-09T09:20:46.495Z,2.40
2022-08-09T09:24:21.940Z,2.30
2022-08-09T09:28:06.087Z,2.43
2022-08-09T09:32:06.506Z,2.37
2022-08-09T14:07:42.252Z,2.10
2022-08-09T18:13:45.910Z,1.90
2022-08-09T18:34:03.679Z,1.60
2022-08-09T18:41:52.702Z,1.70
2022-08-09T18:46:47.709Z,1.57
2022-08-09T18:49:46.928Z,1.60
2022-08-09T18:54:12.544Z,1.47
2022-08-09T18:57:45.362Z,1.87
2022-08-09T19:01:10.109Z,1.50
2022-08-09T19:08:38.919Z,1.60
2022-08-09T19:12:04.072Z,1.50
2022-08-09T19:15:31.530Z,2.00
2022-08-09T19:19:26.179Z,2.10
2022-08-09T19:22:54.617Z,1.60
2022-08-09T19:26:29.196Z,2.17
2022-08-09T19:30:24.629Z,1.97
2022-08-09T19:33:49.586Z,1.73
2022-08-09T19:37:17.841Z,2.00
2022-08-09T19:40:51.830Z,2.00
2022-08-09T19:44:20.102Z,2.30
2022-08-09T19:47:45.715Z,2.20
2022-08-09T19:51:17.737Z,1.93
2022-08-09T19:54:43.446Z,1.87
2022-08-09T19:58:16.713Z,2.30
2022-08-09T20:01:52.305Z,1.60
2022-08-09T20:05:46.383Z,1.70
2022-08-09T20:09:44.359Z,2.00
2022-08-09T20:13:07.862Z,2.20
2022-08-09T20:16:53.929Z,1.77
2022-08-09T20:20:27.918Z,1.63
2022-08-09T20:24:07.189Z,2.00
2022-08-09T20:27:36.603Z,2.23
2022-08-09T20:31:09.140Z,1.77
2022-08-09T20:34:37.750Z,1.90
2022-08-09T20:38:22.232Z,1.80
2022-08-09T20:41:50.647Z,2.20
2022-08-09T20:45:59.896Z,1.73
2022-08-09T20:49:05.258Z,1.70
2022-08-09T20:52:37.086Z,2.10
2022-08-09T20:56:06.664Z,2.50
2022-08-09T21:00:19.374Z,2.07
2022-08-09T21:04:07.659Z,2.27
2022-08-09T21:07:18.407Z,2.43
2022-08-09T21:10:46.835Z,1.97
2022-08-09T21:14:31.257Z,2.33
2022-08-09T21:18:22.111Z,1.80
2022-08-09T21:21:57.381Z,1.80
2022-08-09T21:25:44.420Z,2.33
2022-08-09T21:29:25.397Z,2.20
2022-08-09T21:32:51.594Z,1.90
2022-08-09T21:36:23.061Z,2.20
2022-08-09T21:39:50.733Z,2.00
2022-08-09T21:43:21.717Z,1.60
2022-08-09T21:47:17.371Z,2.00
2022-08-09T21:50:51.319Z,2.20
2022-08-09T21:54:26.885Z,2.27
2022-08-09T21:57:59.892Z,2.00
2022-08-09T22:01:59.167Z,1.77
2022-08-09T22:05:22.899Z,2.20
2022-08-09T22:08:52.945Z,1.53
2022-08-09T22:12:30.360Z,2.17
2022-08-09T22:15:59.342Z,1.80
2022-08-09T22:19:58.539Z,2.03
2022-08-09T22:23:18.514Z,1.97
2022-08-09T22:26:51.854Z,1.60
2022-08-09T22:30:26.125Z,1.90
2022-08-09T22:33:57.336Z,2.00
2022-08-09T22:37:24.519Z,2.23
2022-08-09T22:40:57.893Z,2.00
2022-08-09T22:44:29.744Z,2.27
2022-08-09T22:48:29.891Z,1.80
2022-08-09T22:51:57.098Z,2.27
2022-08-09T22:55:22.942Z,1.90
2022-08-09T22:58:50.410Z,2.10
2022-08-09T23:02:15.806Z,2.07
2022-08-09T23:05:46.078Z,1.70
2022-08-09T23:09:10.048Z,1.87
2022-08-09T23:12:35.150Z,2.30
2022-08-09T23:16:02.634Z,2.40
2022-08-09T23:19:30.873Z,2.20
2022-08-09T23:23:16.016Z,2.23
2022-08-09T23:26:41.702Z,1.83
2022-08-09T23:30:08.272Z,2.00
2022-08-09T23:33:34.123Z,2.20
2022-08-09T23:37:00.710Z,2.10
2022-08-09T23:40:26.577Z,2.30
2022-08-09T23:43:51.330Z,2.17
2022-08-09T23:47:20.402Z,2.10
2022-08-09T23:50:50.339Z,2.13
2022-08-09T23:54:15.329Z,1.90
2022-08-09T23:57:56.887Z,1.77
